createdAt,value
2019-02-28T00:02:09.531Z,101085.42
2019-02-28T00:06:14.642Z,101090.33
2019-02-28T00:10:20.016Z,101083.36
2019-02-28T00:14:27.747Z,101087.77
2019-02-28T00:18:32.015Z,101086.32
2019-02-28T00:22:37.417Z,101084.33
2019-02-28T00:26:46.252Z,101083.34
2019-02-28T00:30:49.516Z,101075.42
2019-02-28T00:34:54.618Z,101074.23
2019-02-28T00:39:00.075Z,101068.51
2019-02-28T00:43:07.450Z,101073.45
2019-02-28T00:47:16.459Z,101068.77
2019-02-28T00:51:21.589Z,101064.71
2019-02-28T00:55:27.769Z,101068.58
2019-02-28T00:59:34.321Z,101064.64
2019-02-28T01:03:39.553Z,101059.30
2019-02-28T01:07:48.136Z,101054.48
2019-02-28T01:11:51.385Z,101053.78
2019-02-28T01:15:59.439Z,101053.85
2019-02-28T01:20:04.884Z,101049.48
2019-02-28T01:24:10.044Z,101040.44
2019-02-28T01:28:15.231Z,101026.77
2019-02-28T01:32:20.351Z,101023.00
2019-02-28T01:36:25.547Z,101015.45
2019-02-28T01:40:31.145Z,101019.00
2019-02-28T01:44:36.539Z,101010.95
2019-02-28T01:48:41.801Z,101005.50
2019-02-28T01:52:47.033Z,101008.39
2019-02-28T01:56:52.169Z,101000.34
2019-02-28T02:00:58.081Z,101007.67
2019-02-28T02:05:03.351Z,100993.23
2019-02-28T02:09:10.981Z,100995.78
2019-02-28T02:13:15.649Z,100991.84
2019-02-28T02:17:20.723Z,100987.38
2019-02-28T02:21:26.210Z,100981.02
2019-02-28T02:25:31.347Z,100975.77
2019-02-28T02:29:37.109Z,100967.53
2019-02-28T02:33:42.253Z,100965.63
2019-02-28T02:37:48.518Z,100954.53
2019-02-28T02:41:53.564Z,100950.34
2019-02-28T02:45:58.669Z,100944.16
2019-02-28T02:50:04.065Z,100931.99
2019-02-28T02:54:09.172Z,100931.50
2019-02-28T02:58:14.389Z,100922.97
2019-02-28T03:02:19.538Z,100933.44
2019-02-28T03:06:24.735Z,100931.20
2019-02-28T03:10:29.818Z,100914.89
2019-02-28T03:14:35.352Z,100922.43
2019-02-28T03:18:40.487Z,100928.84
2019-02-28T03:22:45.664Z,100922.29
2019-02-28T03:26:50.874Z,100916.28
2019-02-28T03:30:55.987Z,100918.25
2019-02-28T03:35:01.174Z,100917.64
2019-02-28T03:39:07.671Z,100916.98
2019-02-28T03:43:12.878Z,100913.84
2019-02-28T03:47:22.755Z,100907.67
2019-02-28T03:51:28.338Z,100903.62
2019-02-28T03:55:31.785Z,100897.66
2019-02-28T03:59:36.999Z,100899.55
2019-02-28T04:03:42.111Z,100895.86
2019-02-28T04:07:52.701Z,100895.92
2019-02-28T04:11:54.985Z,100896.92
2019-02-28T04:16:08.435Z,100900.77
2019-02-28T04:20:08.084Z,100900.00
2019-02-28T04:24:14.125Z,100898.57
2019-02-28T04:28:19.282Z,100887.72
2019-02-28T04:32:27.630Z,100888.52
2019-02-28T04:36:35.485Z,100887.02
2019-02-28T04:40:38.233Z,100886.62
2019-02-28T04:44:43.316Z,100887.11
2019-02-28T04:48:49.163Z,100880.13
2019-02-28T04:52:54.251Z,100875.34
2019-02-28T04:56:59.426Z,100872.42
2019-02-28T05:01:04.528Z,100882.63
2019-02-28T05:05:12.820Z,100886.29
2019-02-28T05:09:16.642Z,100882.48
2019-02-28T05:13:21.744Z,100885.65
2019-02-28T05:17:26.861Z,100874.50
2019-02-28T05:21:32.072Z,100878.76
2019-02-28T05:25:37.264Z,100873.94
2019-02-28T05:29:43.928Z,100870.29
2019-02-28T05:33:49.336Z,100876.48
2019-02-28T05:37:54.425Z,100870.69
2019-02-28T05:41:59.662Z,100863.03
2019-02-28T05:46:05.046Z,100860.48
2019-02-28T05:50:15.218Z,100857.98
2019-02-28T05:54:17.302Z,100844.60
2019-02-28T05:58:22.414Z,100835.70
2019-02-28T06:02:27.571Z,100846.80
2019-02-28T06:06:33.081Z,100843.38
2019-02-28T06:10:38.225Z,100837.72
2019-02-28T06:14:43.341Z,100839.97
2019-02-28T06:18:48.722Z,100837.26
2019-02-28T06:22:53.917Z,100844.08
2019-02-28T06:26:59.017Z,100843.84
2019-02-28T06:31:04.476Z,100856.66
2019-02-28T06:35:09.598Z,100854.77
2019-02-28T06:39:14.778Z,100856.55
2019-02-28T06:43:19.929Z,100846.72
2019-02-28T06:47:25.100Z,100845.81
2019-02-28T06:51:30.236Z,100847.58
2019-02-28T06:55:36.953Z,100845.88
2019-02-28T06:59:42.168Z,100848.83
2019-02-28T07:03:53.431Z,100840.84
2019-02-28T07:07:54.218Z,100846.38
2019-02-28T07:11:59.380Z,100840.34
2019-02-28T07:16:04.471Z,100844.31
2019-02-28T07:20:11.603Z,100838.70
2019-02-28T07:24:16.996Z,100850.24
2019-02-28T07:28:22.240Z,100854.00
2019-02-28T07:32:27.359Z,100843.55
2019-02-28T07:36:32.529Z,100829.90
2019-02-28T07:40:37.920Z,100818.50
2019-02-28T07:44:43.126Z,100829.42
2019-02-28T07:48:48.242Z,100829.87
2019-02-28T07:52:53.441Z,100838.27
2019-02-28T07:56:58.582Z,100838.34
2019-02-28T08:01:03.697Z,100834.53
2019-02-28T08:05:09.133Z,100848.33
2019-02-28T08:09:27.799Z,100844.05
2019-02-28T08:13:34.637Z,100841.44
2019-02-28T08:17:40.660Z,100846.83
2019-02-28T08:21:50.278Z,100854.81
2019-02-28T08:25:53.618Z,100855.27
2019-02-28T08:29:58.730Z,100851.99
2019-02-28T08:34:03.816Z,100845.53
2019-02-28T08:38:08.894Z,100839.63
2019-02-28T08:42:13.960Z,100838.59
2019-02-28T08:46:19.160Z,100825.06
2019-02-28T08:50:24.354Z,100827.97
2019-02-28T08:54:29.468Z,100827.83
2019-02-28T08:58:37.620Z,100819.88
2019-02-28T09:02:41.510Z,100807.86
2019-02-28T09:06:46.636Z,100798.78
2019-02-28T09:10:51.798Z,100794.94
2019-02-28T09:14:56.879Z,100794.98
2019-02-28T09:19:01.976Z,100795.11
2019-02-28T09:23:07.082Z,100815.97
2019-02-28T09:27:12.342Z,100810.55
2019-02-28T09:31:17.443Z,100818.97
2019-02-28T09:35:22.803Z,100811.58
2019-02-28T09:39:27.943Z,100810.97
2019-02-28T09:43:33.165Z,100809.36
2019-02-28T09:47:38.509Z,100796.55
2019-02-28T09:51:44.551Z,100789.91
2019-02-28T09:55:49.567Z,100797.06
2019-02-28T09:59:54.749Z,100799.07
2019-02-28T10:03:59.965Z,100805.19
2019-02-28T10:08:07.051Z,100807.66
2019-02-28T10:12:12.331Z,100818.69
2019-02-28T10:16:17.690Z,100811.77
2019-02-28T10:20:27.068Z,100832.84
2019-02-28T10:24:32.485Z,100847.33
2019-02-28T10:28:37.578Z,100836.11
2019-02-28T10:32:43.381Z,100842.46
2019-02-28T10:36:50.050Z,100835.58
2019-02-28T10:40:55.139Z,100841.93
2019-02-28T10:45:00.273Z,100835.70
2019-02-28T10:49:05.460Z,100836.08
2019-02-28T10:53:10.623Z,100830.72
2019-02-28T10:57:15.936Z,100824.16
2019-02-28T11:01:21.229Z,100818.33
2019-02-28T11:05:28.842Z,100820.77
2019-02-28T11:09:33.961Z,100817.00
2019-02-28T11:13:39.096Z,100810.78
2019-02-28T11:17:44.693Z,100806.64
2019-02-28T11:21:49.799Z,100817.11
2019-02-28T11:25:56.099Z,100809.39
2019-02-28T11:30:01.194Z,100817.59
2019-02-28T11:34:06.423Z,100812.36
2019-02-28T11:38:11.887Z,100823.43
2019-02-28T11:42:17.048Z,100820.89
2019-02-28T11:46:22.178Z,100836.05
2019-02-28T11:50:27.389Z,100819.63
2019-02-28T11:54:32.913Z,100831.30
2019-02-28T11:58:38.089Z,100822.06
2019-02-28T12:02:43.176Z,100823.75
2019-02-28T12:06:50.300Z,100822.80
2019-02-28T12:10:58.319Z,100822.15
2019-02-28T12:15:02.786Z,100813.58
2019-02-28T12:19:09.026Z,100812.96
2019-02-28T12:23:14.228Z,100826.63
2019-02-28T12:27:19.333Z,100825.58
2019-02-28T12:31:24.471Z,100838.53
2019-02-28T12:35:37.409Z,100846.97
2019-02-28T12:39:37.689Z,100848.20
2019-02-28T12:43:42.767Z,100836.81
2019-02-28T12:47:47.961Z,100836.08
2019-02-28T12:51:53.314Z,100844.83
2019-02-28T12:55:58.460Z,100837.27
2019-02-28T13:00:03.789Z,100837.58
2019-02-28T13:04:09.269Z,100841.94
2019-02-28T13:08:15.391Z,100834.98
2019-02-28T13:12:20.758Z,100844.86
2019-02-28T13:16:25.927Z,100854.56
2019-02-28T13:20:33.509Z,100842.92
2019-02-28T13:24:38.078Z,100859.12
2019-02-28T13:28:43.153Z,100858.47
2019-02-28T13:32:48.446Z,100852.11
2019-02-28T13:36:54.336Z,100849.33
2019-02-28T13:41:00.502Z,100837.88
2019-02-28T13:45:13.388Z,100846.17
2019-02-28T13:49:15.471Z,100853.17
2019-02-28T13:53:19.654Z,100855.48
2019-02-28T13:57:24.835Z,100846.01
2019-02-28T14:01:29.951Z,100855.69
2019-02-28T14:05:40.823Z,100842.19
2019-02-28T14:09:42.235Z,100832.05
2019-02-28T14:13:47.315Z,100816.77
2019-02-28T14:17:52.557Z,100812.23
2019-02-28T14:21:57.856Z,100815.45
2019-02-28T14:26:03.204Z,100810.92
2019-02-28T14:30:11.265Z,100825.67
2019-02-28T14:34:17.672Z,100799.97
2019-02-28T14:38:22.782Z,100818.02
2019-02-28T14:42:27.919Z,100798.00
2019-02-28T14:46:34.711Z,100805.09
2019-02-28T14:50:40.155Z,100791.32
2019-02-28T14:54:45.262Z,100794.34
2019-02-28T14:58:50.442Z,100785.17
2019-02-28T15:02:55.582Z,100791.80
2019-02-28T15:07:03.123Z,100801.40
2019-02-28T15:11:10.180Z,100794.54
2019-02-28T15:15:18.037Z,100783.58
2019-02-28T15:19:24.415Z,100806.06
2019-02-28T15:23:30.943Z,100806.52
2019-02-28T15:27:39.049Z,100797.36
2019-02-28T15:31:44.272Z,100797.38
2019-02-28T15:35:49.899Z,100789.08
2019-02-28T15:39:55.591Z,100790.28
2019-02-28T15:44:00.678Z,100776.51
2019-02-28T15:48:05.945Z,100781.14
2019-02-28T15:52:11.107Z,100772.05
2019-02-28T15:56:19.621Z,100775.08
2019-02-28T16:00:25.206Z,100763.45
2019-02-28T16:04:30.328Z,100761.48
2019-02-28T16:08:35.486Z,100745.34
2019-02-28T16:12:40.642Z,100744.29
2019-02-28T16:16:45.800Z,100753.00
2019-02-28T16:20:51.047Z,100748.38
2019-02-28T16:24:56.134Z,100740.94
2019-02-28T16:29:04.301Z,100737.07
2019-02-28T16:33:11.592Z,100732.14
2019-02-28T16:37:16.711Z,100734.31
2019-02-28T16:41:21.813Z,100734.31
2019-02-28T16:45:47.676Z,100733.40
2019-02-28T16:49:52.730Z,100727.52
2019-02-28T16:53:58.018Z,100732.78
2019-02-28T16:58:04.369Z,100726.59
2019-02-28T17:02:09.464Z,100728.05
2019-02-28T17:06:14.607Z,100723.61
2019-02-28T17:10:21.238Z,100722.95
2019-02-28T17:14:26.592Z,100724.13
2019-02-28T17:18:32.701Z,100730.64
2019-02-28T17:22:37.833Z,100724.79
2019-02-28T17:26:58.810Z,100728.94
2019-02-28T17:31:24.461Z,100729.22
2019-02-28T17:35:30.674Z,100726.58
2019-02-28T17:39:36.429Z,100716.12
2019-02-28T17:43:41.949Z,100707.53
2019-02-28T17:48:36.212Z,100708.25
2019-02-28T17:53:03.471Z,100719.46
2019-02-28T17:57:45.065Z,100716.81
2019-02-28T18:02:21.508Z,100722.28
2019-02-28T18:07:16.693Z,100704.20
2019-02-28T18:11:48.681Z,100709.98
2019-02-28T18:16:34.991Z,100711.91
2019-02-28T18:21:06.663Z,100720.77
2019-02-28T18:26:13.862Z,100717.52
2019-02-28T18:30:47.949Z,100707.22
2019-02-28T18:34:56.256Z,100684.80
2019-02-28T18:38:59.915Z,100684.80
2019-02-28T18:43:05.158Z,100697.89
2019-02-28T18:47:10.404Z,100685.58
2019-02-28T18:51:16.787Z,100694.93
2019-02-28T18:55:21.944Z,100685.88
2019-02-28T18:59:27.082Z,100693.02
2019-02-28T19:03:32.430Z,100679.48
2019-02-28T19:07:37.814Z,100679.48
2019-02-28T19:11:42.913Z,100676.24
2019-02-28T19:15:48.090Z,100663.01
2019-02-28T19:19:53.177Z,100657.89
2019-02-28T19:23:58.358Z,100650.39
2019-02-28T19:28:03.506Z,100644.16
2019-02-28T19:32:08.631Z,100639.45
2019-02-28T19:36:13.851Z,100633.16
2019-02-28T19:40:19.192Z,100634.27
2019-02-28T19:44:24.341Z,100628.00
2019-02-28T19:48:29.468Z,100628.00
2019-02-28T19:52:34.605Z,100626.59
2019-02-28T19:56:39.804Z,100624.28
2019-02-28T20:00:45.502Z,100627.79
2019-02-28T20:04:50.577Z,100622.14
2019-02-28T20:08:55.738Z,100622.64
2019-02-28T20:13:00.856Z,100620.65
2019-02-28T20:17:05.944Z,100613.69
2019-02-28T20:21:11.023Z,100610.88
2019-02-28T20:25:16.779Z,100611.52
2019-02-28T20:29:21.888Z,100613.09
2019-02-28T20:33:26.971Z,100603.05
2019-02-28T20:37:32.149Z,100603.77
2019-02-28T20:41:37.555Z,100607.00
2019-02-28T20:45:43.979Z,100594.22
2019-02-28T20:49:51.213Z,100598.94
2019-02-28T20:53:56.947Z,100593.68
2019-02-28T20:58:02.325Z,100587.94
2019-02-28T21:02:07.509Z,100580.75
2019-02-28T21:06:12.613Z,100580.75
2019-02-28T21:10:18.084Z,100590.61
2019-02-28T21:14:23.120Z,100584.02
2019-02-28T21:18:28.290Z,100580.05
2019-02-28T21:22:33.448Z,100586.72
2019-02-28T21:26:38.603Z,100567.73
2019-02-28T21:30:43.739Z,100577.80
2019-02-28T21:34:49.291Z,100565.60
2019-02-28T21:38:54.374Z,100560.51
2019-02-28T21:42:59.738Z,100575.38
2019-02-28T21:47:04.923Z,100563.81
2019-02-28T21:51:10.150Z,100565.98
2019-02-28T21:55:15.421Z,100568.53
2019-02-28T21:59:20.572Z,100564.95
2019-02-28T22:03:25.773Z,100561.00
2019-02-28T22:07:30.875Z,100560.34
2019-02-28T22:11:36.032Z,100545.12
2019-02-28T22:15:41.175Z,100531.37
2019-02-28T22:19:46.220Z,100539.06
2019-02-28T22:23:51.330Z,100533.04
2019-02-28T22:27:56.542Z,100528.80
2019-02-28T22:32:24.135Z,100531.45
2019-02-28T22:36:33.496Z,100533.31
2019-02-28T22:40:38.594Z,100527.27
2019-02-28T22:44:43.708Z,100517.78
2019-02-28T22:48:48.786Z,100516.72
2019-02-28T22:52:55.132Z,100512.86
2019-02-28T22:57:00.741Z,100508.91
2019-02-28T23:01:12.199Z,100511.55
2019-02-28T23:05:17.460Z,100505.73
2019-02-28T23:09:22.607Z,100501.27
2019-02-28T23:13:27.809Z,100509.97
2019-02-28T23:17:32.905Z,100515.41
2019-02-28T23:21:38.021Z,100495.42
2019-02-28T23:25:43.169Z,100476.86
2019-02-28T23:29:59.586Z,100490.40
2019-02-28T23:34:12.436Z,100478.47
2019-02-28T23:38:17.646Z,100470.96
2019-02-28T23:42:22.712Z,100472.69
2019-02-28T23:46:27.842Z,100468.83
2019-02-28T23:50:32.916Z,100473.92
2019-02-28T23:54:38.122Z,100468.89
2019-02-28T23:58:43.287Z,100455.56
